sensor_id;sensor_type;location;lat;lon;timestamp;temperature;humidity
29663;DHT22;16578;53.266;7.920;2022-12-29T00:01:53;13.10;83.40
29663;DHT22;16578;53.266;7.920;2022-12-29T00:04:19;13.10;83.40
29663;DHT22;16578;53.266;7.920;2022-12-29T00:06:44;13.10;83.30
29663;DHT22;16578;53.266;7.920;2022-12-29T00:09:14;13.10;83.30
29663;DHT22;16578;53.266;7.920;2022-12-29T00:11:40;13.10;83.20
29663;DHT22;16578;53.266;7.920;2022-12-29T00:14:08;13.20;83.40
29663;DHT22;16578;53.266;7.920;2022-12-29T00:16:52;13.20;83.40
29663;DHT22;16578;53.266;7.920;2022-12-29T00:19:18;13.20;83.30
29663;DHT22;16578;53.266;7.920;2022-12-29T00:22:02;13.20;83.30
29663;DHT22;16578;53.266;7.920;2022-12-29T00:24:46;13.20;83.30
29663;DHT22;16578;53.266;7.920;2022-12-29T00:27:31;13.20;83.30
29663;DHT22;16578;53.266;7.920;2022-12-29T00:30:18;13.20;83.30
29663;DHT22;16578;53.266;7.920;2022-12-29T00:33:15;13.20;83.30
29663;DHT22;16578;53.266;7.920;2022-12-29T00:36:10;13.20;83.20
29663;DHT22;16578;53.266;7.920;2022-12-29T00:38:38;13.30;83.30
29663;DHT22;16578;53.266;7.920;2022-12-29T00:41:24;13.30;83.30
29663;DHT22;16578;53.266;7.920;2022-12-29T00:44:10;13.30;83.40
29663;DHT22;16578;53.266;7.920;2022-12-29T00:46:37;13.30;83.30
29663;DHT22;16578;53.266;7.920;2022-12-29T00:49:04;13.30;83.40
29663;DHT22;16578;53.266;7.920;2022-12-29T00:51:49;13.30;84.20
29663;DHT22;16578;53.266;7.920;2022-12-29T00:54:15;13.40;83.30
29663;DHT22;16578;53.266;7.920;2022-12-29T00:56:41;13.40;83.30
29663;DHT22;16578;53.266;7.920;2022-12-29T00:59:08;13.40;83.20
29663;DHT22;16578;53.266;7.920;2022-12-29T01:01:35;13.40;83.20
29663;DHT22;16578;53.266;7.920;2022-12-29T01:04:01;13.40;83.20
29663;DHT22;16578;53.266;7.920;2022-12-29T01:06:27;13.40;83.10
29663;DHT22;16578;53.266;7.920;2022-12-29T01:08:52;13.40;83.10
29663;DHT22;16578;53.266;7.920;2022-12-29T01:11:38;13.40;83.10
29663;DHT22;16578;53.266;7.920;2022-12-29T01:14:04;13.40;83.10
29663;DHT22;16578;53.266;7.920;2022-12-29T01:16:29;13.40;83.10
29663;DHT22;16578;53.266;7.920;2022-12-29T01:18:55;13.40;83.10
29663;DHT22;16578;53.266;7.920;2022-12-29T01:21:21;13.50;83.10
29663;DHT22;16578;53.266;7.920;2022-12-29T01:23:46;13.50;83.00
29663;DHT22;16578;53.266;7.920;2022-12-29T01:26:13;13.40;83.00
29663;DHT22;16578;53.266;7.920;2022-12-29T01:28:39;13.50;83.00
29663;DHT22;16578;53.266;7.920;2022-12-29T01:31:06;13.50;83.00
29663;DHT22;16578;53.266;7.920;2022-12-29T01:33:32;13.40;83.00
29663;DHT22;16578;53.266;7.920;2022-12-29T01:36:06;13.50;83.00
29663;DHT22;16578;53.266;7.920;2022-12-29T01:38:33;13.50;83.00
29663;DHT22;16578;53.266;7.920;2022-12-29T01:40:59;13.50;83.00
29663;DHT22;16578;53.266;7.920;2022-12-29T01:43:54;13.50;83.00
29663;DHT22;16578;53.266;7.920;2022-12-29T01:46:25;13.50;83.00
29663;DHT22;16578;53.266;7.920;2022-12-29T01:49:00;13.50;83.10
29663;DHT22;16578;53.266;7.920;2022-12-29T01:51:28;13.50;83.00
29663;DHT22;16578;53.266;7.920;2022-12-29T01:53:57;13.50;83.00
29663;DHT22;16578;53.266;7.920;2022-12-29T01:56:24;13.50;83.00
29663;DHT22;16578;53.266;7.920;2022-12-29T01:59:00;13.50;83.00
29663;DHT22;16578;53.266;7.920;2022-12-29T02:01:27;13.50;83.10
29663;DHT22;16578;53.266;7.920;2022-12-29T02:03:52;13.50;83.00
29663;DHT22;16578;53.266;7.920;2022-12-29T02:06:21;13.60;83.10
29663;DHT22;16578;53.266;7.920;2022-12-29T02:08:50;13.50;82.90
29663;DHT22;16578;53.266;7.920;2022-12-29T02:11:16;13.60;83.00
29663;DHT22;16578;53.266;7.920;2022-12-29T02:13:42;13.60;82.90
29663;DHT22;16578;53.266;7.920;2022-12-29T02:16:28;13.60;82.90
29663;DHT22;16578;53.266;7.920;2022-12-29T02:21:48;13.70;82.90
29663;DHT22;16578;53.266;7.920;2022-12-29T02:36:55;13.80;82.40
29663;DHT22;16578;53.266;7.920;2022-12-29T02:38:59;13.80;82.50
29663;DHT22;16578;53.266;7.920;2022-12-29T02:41:32;13.80;82.60
29663;DHT22;16578;53.266;7.920;2022-12-29T02:46:53;13.90;82.30
29663;DHT22;16578;53.266;7.920;2022-12-29T02:49:36;13.90;82.30
29663;DHT22;16578;53.266;7.920;2022-12-29T02:52:11;13.80;82.10
29663;DHT22;16578;53.266;7.920;2022-12-29T02:54:40;13.90;82.10
29663;DHT22;16578;53.266;7.920;2022-12-29T02:59:37;13.90;81.90
29663;DHT22;16578;53.266;7.920;2022-12-29T03:07:47;13.90;81.70
29663;DHT22;16578;53.266;7.920;2022-12-29T03:10:41;14.00;81.60
29663;DHT22;16578;53.266;7.920;2022-12-29T03:13:14;13.90;81.60
29663;DHT22;16578;53.266;7.920;2022-12-29T03:16:23;13.90;81.70
29663;DHT22;16578;53.266;7.920;2022-12-29T03:19:18;13.90;81.70
29663;DHT22;16578;53.266;7.920;2022-12-29T03:22:09;14.00;81.50
29663;DHT22;16578;53.266;7.920;2022-12-29T03:24:55;14.00;81.60
29663;DHT22;16578;53.266;7.920;2022-12-29T03:27:27;14.00;81.60
29663;DHT22;16578;53.266;7.920;2022-12-29T03:30:04;14.00;81.50
29663;DHT22;16578;53.266;7.920;2022-12-29T03:32:38;14.10;81.50
29663;DHT22;16578;53.266;7.920;2022-12-29T03:35:08;14.00;81.40
29663;DHT22;16578;53.266;7.920;2022-12-29T03:37:40;14.00;81.40
29663;DHT22;16578;53.266;7.920;2022-12-29T03:40:07;14.10;81.50
29663;DHT22;16578;53.266;7.920;2022-12-29T03:42:35;14.10;81.50
29663;DHT22;16578;53.266;7.920;2022-12-29T03:45:01;14.10;81.50
29663;DHT22;16578;53.266;7.920;2022-12-29T03:47:26;14.00;81.50
29663;DHT22;16578;53.266;7.920;2022-12-29T03:49:52;14.00;81.50
29663;DHT22;16578;53.266;7.920;2022-12-29T03:52:18;14.10;81.50
29663;DHT22;16578;53.266;7.920;2022-12-29T03:54:44;14.00;81.50
29663;DHT22;16578;53.266;7.920;2022-12-29T03:57:10;14.00;81.50
29663;DHT22;16578;53.266;7.920;2022-12-29T03:59:36;14.00;81.50
29663;DHT22;16578;53.266;7.920;2022-12-29T04:02:02;14.00;81.50
29663;DHT22;16578;53.266;7.920;2022-12-29T04:04:28;14.00;81.50
29663;DHT22;16578;53.266;7.920;2022-12-29T04:06:53;14.00;81.50
29663;DHT22;16578;53.266;7.920;2022-12-29T04:09:19;14.00;81.50
29663;DHT22;16578;53.266;7.920;2022-12-29T04:11:44;14.00;81.60
29663;DHT22;16578;53.266;7.920;2022-12-29T04:14:10;14.00;81.60
29663;DHT22;16578;53.266;7.920;2022-12-29T04:16:36;14.00;81.70
29663;DHT22;16578;53.266;7.920;2022-12-29T04:19:04;14.00;81.60
29663;DHT22;16578;53.266;7.920;2022-12-29T04:21:30;13.90;81.60
29663;DHT22;16578;53.266;7.920;2022-12-29T04:23:56;14.00;81.70
29663;DHT22;16578;53.266;7.920;2022-12-29T04:26:21;13.90;81.70
29663;DHT22;16578;53.266;7.920;2022-12-29T04:28:47;14.00;81.80
29663;DHT22;16578;53.266;7.920;2022-12-29T04:31:12;14.00;81.80
29663;DHT22;16578;53.266;7.920;2022-12-29T04:33:38;14.00;81.70
29663;DHT22;16578;53.266;7.920;2022-12-29T04:36:03;13.90;81.70
29663;DHT22;16578;53.266;7.920;2022-12-29T04:38:29;14.00;81.70
29663;DHT22;16578;53.266;7.920;2022-12-29T04:40:55;14.00;81.50
29663;DHT22;16578;53.266;7.920;2022-12-29T04:43:20;14.00;81.40
29663;DHT22;16578;53.266;7.920;2022-12-29T04:45:47;13.90;81.20
29663;DHT22;16578;53.266;7.920;2022-12-29T04:48:14;13.90;81.20
29663;DHT22;16578;53.266;7.920;2022-12-29T04:50:40;13.90;81.20
29663;DHT22;16578;53.266;7.920;2022-12-29T04:53:06;13.90;81.20
29663;DHT22;16578;53.266;7.920;2022-12-29T04:55:32;13.90;81.20
29663;DHT22;16578;53.266;7.920;2022-12-29T04:57:58;13.90;81.20
29663;DHT22;16578;53.266;7.920;2022-12-29T05:00:23;13.90;81.10
29663;DHT22;16578;53.266;7.920;2022-12-29T05:02:49;13.90;81.20
29663;DHT22;16578;53.266;7.920;2022-12-29T05:05:15;13.90;81.10
29663;DHT22;16578;53.266;7.920;2022-12-29T05:07:40;13.90;81.10
29663;DHT22;16578;53.266;7.920;2022-12-29T05:10:06;13.90;81.10
29663;DHT22;16578;53.266;7.920;2022-12-29T05:12:34;13.90;81.10
29663;DHT22;16578;53.266;7.920;2022-12-29T05:14:59;13.90;81.00
29663;DHT22;16578;53.266;7.920;2022-12-29T05:17:26;13.90;81.00
29663;DHT22;16578;53.266;7.920;2022-12-29T05:19:51;13.90;81.00
29663;DHT22;16578;53.266;7.920;2022-12-29T05:22:17;13.90;81.00
29663;DHT22;16578;53.266;7.920;2022-12-29T05:24:43;13.90;80.80
29663;DHT22;16578;53.266;7.920;2022-12-29T05:27:08;13.90;80.60
29663;DHT22;16578;53.266;7.920;2022-12-29T05:29:34;13.90;80.40
29663;DHT22;16578;53.266;7.920;2022-12-29T05:32:00;13.90;80.40
29663;DHT22;16578;53.266;7.920;2022-12-29T05:34:25;13.80;80.20
29663;DHT22;16578;53.266;7.920;2022-12-29T05:36:51;13.80;80.20
29663;DHT22;16578;53.266;7.920;2022-12-29T05:39:16;13.80;80.30
29663;DHT22;16578;53.266;7.920;2022-12-29T05:41:42;13.80;80.30
29663;DHT22;16578;53.266;7.920;2022-12-29T05:44:07;13.80;80.10
29663;DHT22;16578;53.266;7.920;2022-12-29T05:46:33;13.80;80.10
29663;DHT22;16578;53.266;7.920;2022-12-29T05:48:58;13.80;80.10
29663;DHT22;16578;53.266;7.920;2022-12-29T05:51:24;13.70;80.10
29663;DHT22;16578;53.266;7.920;2022-12-29T05:53:50;13.80;80.20
29663;DHT22;16578;53.266;7.920;2022-12-29T05:56:15;13.70;80.10
29663;DHT22;16578;53.266;7.920;2022-12-29T05:58:41;13.70;80.10
29663;DHT22;16578;53.266;7.920;2022-12-29T06:01:06;13.70;80.00
29663;DHT22;16578;53.266;7.920;2022-12-29T06:03:32;13.60;79.90
29663;DHT22;16578;53.266;7.920;2022-12-29T06:05:58;13.60;79.80
29663;DHT22;16578;53.266;7.920;2022-12-29T06:08:23;13.60;79.80
29663;DHT22;16578;53.266;7.920;2022-12-29T06:10:49;13.60;79.90
29663;DHT22;16578;53.266;7.920;2022-12-29T06:13:15;13.60;79.90
29663;DHT22;16578;53.266;7.920;2022-12-29T06:15:40;13.60;79.90
29663;DHT22;16578;53.266;7.920;2022-12-29T06:18:06;13.60;79.90
29663;DHT22;16578;53.266;7.920;2022-12-29T06:20:31;13.60;79.90
29663;DHT22;16578;53.266;7.920;2022-12-29T06:22:57;13.60;80.70
29663;DHT22;16578;53.266;7.920;2022-12-29T06:25:22;13.60;79.80
29663;DHT22;16578;53.266;7.920;2022-12-29T06:27:48;13.60;79.70
29663;DHT22;16578;53.266;7.920;2022-12-29T06:30:14;13.60;79.70
29663;DHT22;16578;53.266;7.920;2022-12-29T06:32:40;13.60;79.70
29663;DHT22;16578;53.266;7.920;2022-12-29T06:35:06;13.50;79.60
29663;DHT22;16578;53.266;7.920;2022-12-29T06:37:32;13.50;79.50
29663;DHT22;16578;53.266;7.920;2022-12-29T06:39:58;13.50;79.60
29663;DHT22;16578;53.266;7.920;2022-12-29T06:42:23;13.50;79.50
29663;DHT22;16578;53.266;7.920;2022-12-29T06:44:49;13.50;79.50
29663;DHT22;16578;53.266;7.920;2022-12-29T06:47:15;13.50;80.30
29663;DHT22;16578;53.266;7.920;2022-12-29T06:49:41;13.50;79.40
29663;DHT22;16578;53.266;7.920;2022-12-29T06:52:06;13.40;79.30
29663;DHT22;16578;53.266;7.920;2022-12-29T06:54:32;13.40;79.20
29663;DHT22;16578;53.266;7.920;2022-12-29T06:56:58;13.40;79.30
29663;DHT22;16578;53.266;7.920;2022-12-29T06:59:24;13.40;79.40
29663;DHT22;16578;53.266;7.920;2022-12-29T07:01:50;13.30;79.40
29663;DHT22;16578;53.266;7.920;2022-12-29T07:04:16;13.30;79.40
29663;DHT22;16578;53.266;7.920;2022-12-29T07:06:41;13.30;79.40
29663;DHT22;16578;53.266;7.920;2022-12-29T07:09:08;13.30;79.40
29663;DHT22;16578;53.266;7.920;2022-12-29T07:11:34;13.30;79.40
29663;DHT22;16578;53.266;7.920;2022-12-29T07:13:59;13.30;79.40
29663;DHT22;16578;53.266;7.920;2022-12-29T07:16:25;13.30;79.50
29663;DHT22;16578;53.266;7.920;2022-12-29T07:18:51;13.30;79.60
29663;DHT22;16578;53.266;7.920;2022-12-29T07:21:18;13.30;79.60
29663;DHT22;16578;53.266;7.920;2022-12-29T07:23:44;13.30;79.50
29663;DHT22;16578;53.266;7.920;2022-12-29T07:26:12;13.30;79.40
29663;DHT22;16578;53.266;7.920;2022-12-29T07:28:38;13.30;79.30
29663;DHT22;16578;53.266;7.920;2022-12-29T07:31:04;13.20;79.40
29663;DHT22;16578;53.266;7.920;2022-12-29T07:33:31;13.30;79.50
29663;DHT22;16578;53.266;7.920;2022-12-29T07:35:57;13.30;79.20
29663;DHT22;16578;53.266;7.920;2022-12-29T07:38:23;13.30;79.00
29663;DHT22;16578;53.266;7.920;2022-12-29T07:40:48;13.30;78.80
29663;DHT22;16578;53.266;7.920;2022-12-29T07:43:14;13.30;78.60
29663;DHT22;16578;53.266;7.920;2022-12-29T07:45:40;13.30;78.60
29663;DHT22;16578;53.266;7.920;2022-12-29T07:48:06;13.30;78.40
29663;DHT22;16578;53.266;7.920;2022-12-29T07:50:35;13.30;78.40
29663;DHT22;16578;53.266;7.920;2022-12-29T07:53:01;13.30;78.30
29663;DHT22;16578;53.266;7.920;2022-12-29T07:55:26;13.30;78.20
29663;DHT22;16578;53.266;7.920;2022-12-29T07:57:55;13.30;78.30
29663;DHT22;16578;53.266;7.920;2022-12-29T08:00:22;13.30;78.20
29663;DHT22;16578;53.266;7.920;2022-12-29T08:02:48;13.30;78.30
29663;DHT22;16578;53.266;7.920;2022-12-29T08:05:14;13.30;78.30
29663;DHT22;16578;53.266;7.920;2022-12-29T08:07:43;13.40;78.20
29663;DHT22;16578;53.266;7.920;2022-12-29T08:10:10;13.30;78.00
29663;DHT22;16578;53.266;7.920;2022-12-29T08:12:37;13.30;77.90
29663;DHT22;16578;53.266;7.920;2022-12-29T08:15:03;13.30;77.80
29663;DHT22;16578;53.266;7.920;2022-12-29T08:17:29;13.40;77.80
29663;DHT22;16578;53.266;7.920;2022-12-29T08:19:54;13.40;77.80
29663;DHT22;16578;53.266;7.920;2022-12-29T08:22:20;13.30;77.60
29663;DHT22;16578;53.266;7.920;2022-12-29T08:24:45;13.30;77.60
29663;DHT22;16578;53.266;7.920;2022-12-29T08:27:11;13.30;77.60
29663;DHT22;16578;53.266;7.920;2022-12-29T08:29:36;13.30;77.60
29663;DHT22;16578;53.266;7.920;2022-12-29T08:32:02;13.40;77.60
29663;DHT22;16578;53.266;7.920;2022-12-29T08:34:30;13.30;77.50
29663;DHT22;16578;53.266;7.920;2022-12-29T08:36:56;13.40;77.60
29663;DHT22;16578;53.266;7.920;2022-12-29T08:39:21;13.40;77.70
29663;DHT22;16578;53.266;7.920;2022-12-29T08:41:47;13.40;77.60
29663;DHT22;16578;53.266;7.920;2022-12-29T08:44:13;13.40;77.60
29663;DHT22;16578;53.266;7.920;2022-12-29T08:46:38;13.40;77.50
29663;DHT22;16578;53.266;7.920;2022-12-29T08:49:04;13.40;77.50
29663;DHT22;16578;53.266;7.920;2022-12-29T08:51:30;13.40;77.30
29663;DHT22;16578;53.266;7.920;2022-12-29T08:53:55;13.40;77.20
29663;DHT22;16578;53.266;7.920;2022-12-29T08:56:21;13.50;77.20
29663;DHT22;16578;53.266;7.920;2022-12-29T08:58:49;13.40;76.90
29663;DHT22;16578;53.266;7.920;2022-12-29T09:01:14;13.50;77.00
29663;DHT22;16578;53.266;7.920;2022-12-29T09:03:40;13.50;77.00
29663;DHT22;16578;53.266;7.920;2022-12-29T09:06:06;13.50;77.00
29663;DHT22;16578;53.266;7.920;2022-12-29T09:08:31;13.50;77.00
29663;DHT22;16578;53.266;7.920;2022-12-29T09:11:09;13.50;76.90
29663;DHT22;16578;53.266;7.920;2022-12-29T09:13:35;13.60;76.60
29663;DHT22;16578;53.266;7.920;2022-12-29T09:16:01;13.50;76.70
29663;DHT22;16578;53.266;7.920;2022-12-29T09:18:26;13.60;76.60
29663;DHT22;16578;53.266;7.920;2022-12-29T09:20:59;13.60;76.50
29663;DHT22;16578;53.266;7.920;2022-12-29T09:23:26;13.60;76.40
29663;DHT22;16578;53.266;7.920;2022-12-29T09:25:52;13.60;76.40
29663;DHT22;16578;53.266;7.920;2022-12-29T09:28:18;13.60;76.40
29663;DHT22;16578;53.266;7.920;2022-12-29T09:30:43;13.60;76.30
29663;DHT22;16578;53.266;7.920;2022-12-29T09:33:09;13.60;76.30
29663;DHT22;16578;53.266;7.920;2022-12-29T09:35:34;13.60;76.10
29663;DHT22;16578;53.266;7.920;2022-12-29T09:38:00;13.60;76.00
29663;DHT22;16578;53.266;7.920;2022-12-29T09:40:31;13.60;76.00
29663;DHT22;16578;53.266;7.920;2022-12-29T09:43:13;13.60;75.90
29663;DHT22;16578;53.266;7.920;2022-12-29T09:48:23;13.70;75.80
29663;DHT22;16578;53.266;7.920;2022-12-29T09:50:55;13.60;75.70
29663;DHT22;16578;53.266;7.920;2022-12-29T09:56:01;13.60;75.30
29663;DHT22;16578;53.266;7.920;2022-12-29T09:58:54;13.60;75.40
29663;DHT22;16578;53.266;7.920;2022-12-29T10:01:41;13.60;76.00
29663;DHT22;16578;53.266;7.920;2022-12-29T10:04:07;13.60;75.20
29663;DHT22;16578;53.266;7.920;2022-12-29T10:09:19;13.60;75.30
29663;DHT22;16578;53.266;7.920;2022-12-29T10:23:22;13.70;74.90
29663;DHT22;16578;53.266;7.920;2022-12-29T10:25:53;13.60;75.00
29663;DHT22;16578;53.266;7.920;2022-12-29T10:28:23;13.60;75.00
29663;DHT22;16578;53.266;7.920;2022-12-29T10:30:50;13.60;74.90
29663;DHT22;16578;53.266;7.920;2022-12-29T10:33:23;13.70;74.90
29663;DHT22;16578;53.266;7.920;2022-12-29T10:35:52;13.70;74.80
29663;DHT22;16578;53.266;7.920;2022-12-29T10:38:28;13.70;74.80
29663;DHT22;16578;53.266;7.920;2022-12-29T10:43:47;13.60;74.60
29663;DHT22;16578;53.266;7.920;2022-12-29T10:46:33;13.70;74.60
29663;DHT22;16578;53.266;7.920;2022-12-29T10:49:00;13.80;74.50
29663;DHT22;16578;53.266;7.920;2022-12-29T10:51:39;13.80;74.90
29663;DHT22;16578;53.266;7.920;2022-12-29T10:54:11;13.80;75.50
29663;DHT22;16578;53.266;7.920;2022-12-29T10:56:39;13.80;74.50
29663;DHT22;16578;53.266;7.920;2022-12-29T11:07:07;13.90;74.40
29663;DHT22;16578;53.266;7.920;2022-12-29T11:09:35;13.90;74.60
29663;DHT22;16578;53.266;7.920;2022-12-29T11:14:48;13.90;74.40
29663;DHT22;16578;53.266;7.920;2022-12-29T11:17:25;13.80;74.60
29663;DHT22;16578;53.266;7.920;2022-12-29T11:19:51;13.80;74.70
29663;DHT22;16578;53.266;7.920;2022-12-29T11:22:28;13.80;74.70
29663;DHT22;16578;53.266;7.920;2022-12-29T11:24:54;13.80;74.90
29663;DHT22;16578;53.266;7.920;2022-12-29T11:27:30;13.80;75.10
29663;DHT22;16578;53.266;7.920;2022-12-29T11:29:55;13.80;75.20
29663;DHT22;16578;53.266;7.920;2022-12-29T11:32:23;13.70;75.10
29663;DHT22;16578;53.266;7.920;2022-12-29T11:34:49;13.70;75.20
29663;DHT22;16578;53.266;7.920;2022-12-29T11:37:38;13.60;75.20
29663;DHT22;16578;53.266;7.920;2022-12-29T11:40:18;13.60;75.30
29663;DHT22;16578;53.266;7.920;2022-12-29T11:43:06;13.60;75.50
29663;DHT22;16578;53.266;7.920;2022-12-29T11:45:34;13.50;75.50
29663;DHT22;16578;53.266;7.920;2022-12-29T11:48:09;13.50;76.40
29663;DHT22;16578;53.266;7.920;2022-12-29T11:50:39;13.60;75.50
29663;DHT22;16578;53.266;7.920;2022-12-29T11:53:16;13.50;75.60
29663;DHT22;16578;53.266;7.920;2022-12-29T11:55:51;13.50;75.60
29663;DHT22;16578;53.266;7.920;2022-12-29T11:58:18;13.50;75.70
29663;DHT22;16578;53.266;7.920;2022-12-29T12:00:44;13.40;75.80
29663;DHT22;16578;53.266;7.920;2022-12-29T12:03:19;13.50;76.00
29663;DHT22;16578;53.266;7.920;2022-12-29T12:05:54;13.50;76.10
29663;DHT22;16578;53.266;7.920;2022-12-29T12:08:41;13.50;76.20
29663;DHT22;16578;53.266;7.920;2022-12-29T12:11:16;13.50;76.40
29663;DHT22;16578;53.266;7.920;2022-12-29T12:13:57;13.40;76.50
29663;DHT22;16578;53.266;7.920;2022-12-29T12:16:31;13.40;76.70
29663;DHT22;16578;53.266;7.920;2022-12-29T12:19:13;13.40;76.80
29663;DHT22;16578;53.266;7.920;2022-12-29T12:21:43;13.30;76.90
29663;DHT22;16578;53.266;7.920;2022-12-29T12:27:02;13.30;77.10
29663;DHT22;16578;53.266;7.920;2022-12-29T12:41:16;13.10;77.10
29663;DHT22;16578;53.266;7.920;2022-12-29T12:44:12;13.00;77.20
29663;DHT22;16578;53.266;7.920;2022-12-29T12:47:11;13.00;77.30
29663;DHT22;16578;53.266;7.920;2022-12-29T12:52:33;12.90;77.50
29663;DHT22;16578;53.266;7.920;2022-12-29T12:57:59;12.90;78.00
29663;DHT22;16578;53.266;7.920;2022-12-29T13:00:34;12.80;77.90
29663;DHT22;16578;53.266;7.920;2022-12-29T13:09:41;12.80;77.90
29663;DHT22;16578;53.266;7.920;2022-12-29T13:11:43;12.80;77.90
29663;DHT22;16578;53.266;7.920;2022-12-29T13:17:25;12.80;78.00
29663;DHT22;16578;53.266;7.920;2022-12-29T13:20:18;12.80;78.10
29663;DHT22;16578;53.266;7.920;2022-12-29T13:23:23;12.70;78.20
29663;DHT22;16578;53.266;7.920;2022-12-29T13:26:17;12.70;78.50
29663;DHT22;16578;53.266;7.920;2022-12-29T13:28:57;12.70;78.70
29663;DHT22;16578;53.266;7.920;2022-12-29T13:31:37;12.80;79.00
29663;DHT22;16578;53.266;7.920;2022-12-29T13:34:28;12.80;78.90
29663;DHT22;16578;53.266;7.920;2022-12-29T13:37:10;12.80;78.70
29663;DHT22;16578;53.266;7.920;2022-12-29T13:39:41;12.80;78.60
29663;DHT22;16578;53.266;7.920;2022-12-29T13:42:07;12.90;78.60
29663;DHT22;16578;53.266;7.920;2022-12-29T13:44:42;12.90;78.50
29663;DHT22;16578;53.266;7.920;2022-12-29T13:49:47;12.90;78.20
29663;DHT22;16578;53.266;7.920;2022-12-29T13:58:34;12.90;78.10
29663;DHT22;16578;53.266;7.920;2022-12-29T14:01:04;12.90;77.80
29663;DHT22;16578;53.266;7.920;2022-12-29T14:03:49;12.90;77.70
29663;DHT22;16578;53.266;7.920;2022-12-29T14:08:45;12.80;77.30
29663;DHT22;16578;53.266;7.920;2022-12-29T14:11:14;12.80;77.30
29663;DHT22;16578;53.266;7.920;2022-12-29T14:13:42;12.80;77.10
29663;DHT22;16578;53.266;7.920;2022-12-29T14:16:25;12.80;77.10
29663;DHT22;16578;53.266;7.920;2022-12-29T14:18:51;12.70;77.10
29663;DHT22;16578;53.266;7.920;2022-12-29T14:21:21;12.70;77.20
29663;DHT22;16578;53.266;7.920;2022-12-29T14:23:50;12.70;77.20
29663;DHT22;16578;53.266;7.920;2022-12-29T14:28:56;12.70;77.30
29663;DHT22;16578;53.266;7.920;2022-12-29T14:31:40;12.70;77.30
29663;DHT22;16578;53.266;7.920;2022-12-29T14:36:40;12.60;78.10
29663;DHT22;16578;53.266;7.920;2022-12-29T14:39:44;12.60;77.20
29663;DHT22;16578;53.266;7.920;2022-12-29T14:45:03;12.60;78.10
29663;DHT22;16578;53.266;7.920;2022-12-29T14:50:16;12.60;77.20
29663;DHT22;16578;53.266;7.920;2022-12-29T14:53:00;12.60;77.20
29663;DHT22;16578;53.266;7.920;2022-12-29T14:55:47;12.60;77.20
29663;DHT22;16578;53.266;7.920;2022-12-29T14:58:20;12.60;77.20
29663;DHT22;16578;53.266;7.920;2022-12-29T15:00:48;12.60;77.40
29663;DHT22;16578;53.266;7.920;2022-12-29T15:03:22;12.60;78.20
29663;DHT22;16578;53.266;7.920;2022-12-29T15:05:53;12.60;77.10
29663;DHT22;16578;53.266;7.920;2022-12-29T15:08:23;12.70;77.10
29663;DHT22;16578;53.266;7.920;2022-12-29T15:13:25;12.70;77.10
29663;DHT22;16578;53.266;7.920;2022-12-29T15:15:57;12.70;77.10
29663;DHT22;16578;53.266;7.920;2022-12-29T15:18:25;12.70;77.20
29663;DHT22;16578;53.266;7.920;2022-12-29T15:20:53;12.70;77.10
29663;DHT22;16578;53.266;7.920;2022-12-29T15:23:19;12.60;77.20
29663;DHT22;16578;53.266;7.920;2022-12-29T15:25:53;12.60;77.00
29663;DHT22;16578;53.266;7.920;2022-12-29T15:28:20;12.70;76.80
29663;DHT22;16578;53.266;7.920;2022-12-29T15:31:01;12.70;76.70
29663;DHT22;16578;53.266;7.920;2022-12-29T15:33:28;12.70;76.40
29663;DHT22;16578;53.266;7.920;2022-12-29T15:35:55;12.60;76.40
29663;DHT22;16578;53.266;7.920;2022-12-29T15:38:24;12.60;76.30
29663;DHT22;16578;53.266;7.920;2022-12-29T15:40:56;12.50;76.30
29663;DHT22;16578;53.266;7.920;2022-12-29T15:43:27;12.50;76.10
29663;DHT22;16578;53.266;7.920;2022-12-29T15:45:54;12.50;76.30
29663;DHT22;16578;53.266;7.920;2022-12-29T15:48:23;12.50;76.30
29663;DHT22;16578;53.266;7.920;2022-12-29T15:50:49;12.40;76.20
29663;DHT22;16578;53.266;7.920;2022-12-29T15:53:23;12.30;76.50
29663;DHT22;16578;53.266;7.920;2022-12-29T15:55:57;12.40;76.60
29663;DHT22;16578;53.266;7.920;2022-12-29T15:58:26;12.40;76.50
29663;DHT22;16578;53.266;7.920;2022-12-29T16:00:57;12.40;76.40
29663;DHT22;16578;53.266;7.920;2022-12-29T16:03:25;12.40;76.30
29663;DHT22;16578;53.266;7.920;2022-12-29T16:06:06;12.40;76.40
29663;DHT22;16578;53.266;7.920;2022-12-29T16:08:39;12.30;76.30
29663;DHT22;16578;53.266;7.920;2022-12-29T16:11:35;12.30;76.50
29663;DHT22;16578;53.266;7.920;2022-12-29T16:14:05;12.30;76.20
29663;DHT22;16578;53.266;7.920;2022-12-29T16:16:38;12.30;76.50
29663;DHT22;16578;53.266;7.920;2022-12-29T16:19:52;12.30;76.30
29663;DHT22;16578;53.266;7.920;2022-12-29T16:21:59;12.30;76.40
29663;DHT22;16578;53.266;7.920;2022-12-29T16:24:30;12.30;76.60
29663;DHT22;16578;53.266;7.920;2022-12-29T16:27:07;12.30;76.50
29663;DHT22;16578;53.266;7.920;2022-12-29T16:29:34;12.40;76.50
29663;DHT22;16578;53.266;7.920;2022-12-29T16:32:02;12.30;76.60
29663;DHT22;16578;53.266;7.920;2022-12-29T16:34:33;12.40;76.60
29663;DHT22;16578;53.266;7.920;2022-12-29T16:37:31;12.40;76.50
29663;DHT22;16578;53.266;7.920;2022-12-29T16:40:28;12.40;76.40
29663;DHT22;16578;53.266;7.920;2022-12-29T16:42:57;12.40;76.40
29663;DHT22;16578;53.266;7.920;2022-12-29T16:50:40;12.30;76.60
29663;DHT22;16578;53.266;7.920;2022-12-29T16:55:47;12.30;76.60
29663;DHT22;16578;53.266;7.920;2022-12-29T16:58:19;12.30;76.50
29663;DHT22;16578;53.266;7.920;2022-12-29T17:00:46;12.30;76.50
29663;DHT22;16578;53.266;7.920;2022-12-29T17:03:12;12.30;76.50
29663;DHT22;16578;53.266;7.920;2022-12-29T17:05:38;12.30;76.50
29663;DHT22;16578;53.266;7.920;2022-12-29T17:08:18;12.30;76.50
29663;DHT22;16578;53.266;7.920;2022-12-29T17:10:52;12.30;76.60
29663;DHT22;16578;53.266;7.920;2022-12-29T17:13:37;12.30;76.70
29663;DHT22;16578;53.266;7.920;2022-12-29T17:16:04;12.30;76.60
29663;DHT22;16578;53.266;7.920;2022-12-29T17:18:32;12.30;76.50
29663;DHT22;16578;53.266;7.920;2022-12-29T17:20:57;12.30;76.50
29663;DHT22;16578;53.266;7.920;2022-12-29T17:23:23;12.30;76.60
29663;DHT22;16578;53.266;7.920;2022-12-29T17:25:48;12.30;76.70
29663;DHT22;16578;53.266;7.920;2022-12-29T17:30:43;12.30;77.00
29663;DHT22;16578;53.266;7.920;2022-12-29T17:33:17;12.30;77.10
29663;DHT22;16578;53.266;7.920;2022-12-29T17:35:43;12.40;77.30
29663;DHT22;16578;53.266;7.920;2022-12-29T17:38:30;12.30;77.30
29663;DHT22;16578;53.266;7.920;2022-12-29T17:40:57;12.40;77.40
29663;DHT22;16578;53.266;7.920;2022-12-29T17:43:23;12.30;77.30
29663;DHT22;16578;53.266;7.920;2022-12-29T17:45:54;12.40;77.40
29663;DHT22;16578;53.266;7.920;2022-12-29T17:48:20;12.40;77.40
29663;DHT22;16578;53.266;7.920;2022-12-29T17:50:48;12.40;77.60
29663;DHT22;16578;53.266;7.920;2022-12-29T17:53:19;12.40;77.60
29663;DHT22;16578;53.266;7.920;2022-12-29T17:55:45;12.40;77.60